createdAt,value
2023-07-28T00:01:13.774Z,42.44
2023-07-28T00:03:59.257Z,42.23
2023-07-28T00:06:44.790Z,42.24
2023-07-28T00:09:30.166Z,42.86
2023-07-28T00:12:15.588Z,42.63
2023-07-28T00:15:00.996Z,42.47
2023-07-28T00:17:46.550Z,42.83
2023-07-28T00:20:32.105Z,42.75
2023-07-28T00:23:17.534Z,43.19
2023-07-28T00:26:02.550Z,43.36
2023-07-28T00:28:47.541Z,42.76
2023-07-28T00:31:32.697Z,42.33
2023-07-28T00:34:17.685Z,42.14
2023-07-28T00:37:03.083Z,42.37
2023-07-28T00:39:48.667Z,41.64
2023-07-28T00:42:35.328Z,41.98
2023-07-28T00:45:21.986Z,41.74
2023-07-28T00:48:07.141Z,41.27
2023-07-28T00:50:52.603Z,41.45
2023-07-28T00:53:37.692Z,40.99
2023-07-28T00:56:23.121Z,41.39
2023-07-28T00:59:08.069Z,40.78
2023-07-28T01:01:52.990Z,40.33
2023-07-28T01:04:38.675Z,40.73
2023-07-28T01:07:24.106Z,40.11
2023-07-28T01:10:09.716Z,39.77
2023-07-28T01:12:55.287Z,39.93
2023-07-28T01:15:40.745Z,39.77
2023-07-28T01:18:26.245Z,39.81
2023-07-28T01:21:11.789Z,39.38
2023-07-28T01:23:57.150Z,39.58
2023-07-28T01:26:42.312Z,39.67
2023-07-28T01:29:27.639Z,39.93
2023-07-28T01:32:16.246Z,39.61
2023-07-28T01:35:01.772Z,38.90
2023-07-28T01:37:46.863Z,39.22
2023-07-28T01:40:32.084Z,39.49
2023-07-28T01:43:17.574Z,39.37
2023-07-28T01:46:05.120Z,39.39
2023-07-28T01:48:50.669Z,39.39
2023-07-28T01:51:36.051Z,39.45
2023-07-28T01:54:21.088Z,39.08
2023-07-28T01:57:06.490Z,39.11
2023-07-28T01:59:51.919Z,39.47
2023-07-28T02:02:37.480Z,39.12
2023-07-28T02:05:22.937Z,39.58
2023-07-28T02:08:08.027Z,39.37
2023-07-28T02:10:53.494Z,39.38
2023-07-28T02:13:38.938Z,39.83
2023-07-28T02:16:23.945Z,39.52
2023-07-28T02:19:09.514Z,39.41
2023-07-28T02:21:55.139Z,39.26
2023-07-28T02:24:40.525Z,39.65
2023-07-28T02:27:26.108Z,39.65
2023-07-28T02:30:11.528Z,39.50
2023-07-28T02:32:57.134Z,39.61
2023-07-28T02:35:42.615Z,39.77
2023-07-28T02:38:27.957Z,40.22
2023-07-28T02:41:13.435Z,40.44
2023-07-28T02:43:58.741Z,40.95
2023-07-28T02:46:44.198Z,40.94
2023-07-28T02:49:29.491Z,41.40
2023-07-28T02:52:14.415Z,41.06
2023-07-28T02:54:59.878Z,41.04
2023-07-28T02:57:45.305Z,40.89
2023-07-28T03:00:33.932Z,41.30
2023-07-28T03:03:19.026Z,41.18
2023-07-28T03:06:04.521Z,40.95
2023-07-28T03:08:49.909Z,40.86
2023-07-28T03:11:34.776Z,40.85
2023-07-28T03:14:20.387Z,41.38
2023-07-28T03:17:05.996Z,41.60
2023-07-28T03:19:51.457Z,40.92
2023-07-28T03:22:37.232Z,41.65
2023-07-28T03:25:22.671Z,41.15
2023-07-28T03:28:07.708Z,41.32
2023-07-28T03:30:53.168Z,41.47
2023-07-28T03:33:38.042Z,41.58
2023-07-28T03:36:23.044Z,41.20
2023-07-28T03:39:08.473Z,40.84
2023-07-28T03:41:53.575Z,41.00
2023-07-28T03:44:39.019Z,40.95
2023-07-28T03:47:24.514Z,41.38
2023-07-28T03:50:09.974Z,41.67
2023-07-28T03:52:55.432Z,41.68
2023-07-28T03:55:41.070Z,41.03
2023-07-28T03:58:26.452Z,41.56
2023-07-28T04:01:12.178Z,41.49
2023-07-28T04:03:57.311Z,41.35
2023-07-28T04:06:42.776Z,40.60
2023-07-28T04:09:28.199Z,41.15
2023-07-28T04:12:13.137Z,40.85
2023-07-28T04:14:58.716Z,41.23
2023-07-28T04:17:44.241Z,41.31
2023-07-28T04:20:29.634Z,41.17
2023-07-28T04:23:15.334Z,41.30
2023-07-28T04:26:00.608Z,41.99
2023-07-28T04:28:45.650Z,41.84
2023-07-28T04:31:30.712Z,41.76
2023-07-28T04:34:16.062Z,41.62
2023-07-28T04:37:01.604Z,41.99
2023-07-28T04:39:47.079Z,42.41
2023-07-28T04:42:32.248Z,42.38
2023-07-28T04:45:17.760Z,42.10
2023-07-28T04:48:04.506Z,41.59
2023-07-28T04:50:49.868Z,41.94
2023-07-28T04:53:35.254Z,42.42
2023-07-28T04:56:20.384Z,42.32
2023-07-28T04:59:05.445Z,42.40
2023-07-28T05:01:50.944Z,42.60
2023-07-28T05:04:36.103Z,42.74
2023-07-28T05:07:21.449Z,42.84
2023-07-28T05:10:08.092Z,43.36
2023-07-28T05:12:54.213Z,43.16
2023-07-28T05:15:40.007Z,43.50
2023-07-28T05:18:25.609Z,43.09
2023-07-28T05:21:10.727Z,43.64
2023-07-28T05:23:55.941Z,43.57
2023-07-28T05:26:43.237Z,43.62
2023-07-28T05:29:28.440Z,43.17
2023-07-28T05:32:14.050Z,43.19
2023-07-28T05:34:59.614Z,42.96
2023-07-28T05:37:44.806Z,43.33
2023-07-28T05:40:29.957Z,43.42
2023-07-28T05:43:15.415Z,43.62
2023-07-28T05:46:00.511Z,43.25
2023-07-28T05:48:46.018Z,43.06
2023-07-28T05:51:31.556Z,43.24
2023-07-28T05:54:16.853Z,43.54
2023-07-28T05:57:02.473Z,43.46
2023-07-28T05:59:47.397Z,43.32
2023-07-28T06:02:33.065Z,43.38
2023-07-28T06:05:19.181Z,43.60
2023-07-28T06:08:04.469Z,43.31
2023-07-28T06:10:50.219Z,43.54
2023-07-28T06:13:35.770Z,43.92
2023-07-28T06:16:21.299Z,43.09
2023-07-28T06:19:06.863Z,42.65
2023-07-28T06:21:52.409Z,42.57
2023-07-28T06:24:38.178Z,43.07
2023-07-28T06:27:23.485Z,43.79
2023-07-28T06:30:08.676Z,42.89
2023-07-28T06:32:53.969Z,42.59
2023-07-28T06:35:39.328Z,42.71
2023-07-28T06:38:24.864Z,42.80
2023-07-28T06:41:09.772Z,42.75
2023-07-28T06:43:55.403Z,42.59
2023-07-28T06:46:40.894Z,42.40
2023-07-28T06:49:26.412Z,42.95
2023-07-28T06:52:11.478Z,42.41
2023-07-28T06:54:56.797Z,43.12
2023-07-28T06:57:42.388Z,43.24
2023-07-28T07:00:27.727Z,42.83
2023-07-28T07:03:13.191Z,43.08
2023-07-28T07:05:58.713Z,43.61
2023-07-28T07:08:44.088Z,42.85
2023-07-28T07:11:29.478Z,42.98
2023-07-28T07:14:14.949Z,43.11
2023-07-28T07:17:00.387Z,43.07
2023-07-28T07:19:48.754Z,43.32
2023-07-28T07:22:34.282Z,42.76
2023-07-28T07:25:19.263Z,43.46
2023-07-28T07:28:04.764Z,43.73
2023-07-28T07:30:50.214Z,42.83
2023-07-28T07:33:35.605Z,42.77
2023-07-28T07:36:20.897Z,43.58
2023-07-28T07:39:06.761Z,42.77
2023-07-28T07:41:51.681Z,43.42
2023-07-28T07:44:37.377Z,42.70
2023-07-28T07:47:22.634Z,43.38
2023-07-28T07:50:08.096Z,42.98
2023-07-28T07:52:53.680Z,43.31
2023-07-28T07:55:39.181Z,43.50
2023-07-28T07:58:24.507Z,43.35
2023-07-28T08:01:09.485Z,43.86
2023-07-28T08:03:54.829Z,44.69
2023-07-28T08:06:39.837Z,44.79
2023-07-28T08:09:24.879Z,44.93
2023-07-28T08:12:10.399Z,45.40
2023-07-28T08:14:57.289Z,44.99
2023-07-28T08:17:42.687Z,44.89
2023-07-28T08:20:28.467Z,45.95
2023-07-28T08:23:13.820Z,45.04
2023-07-28T08:25:59.280Z,43.83
2023-07-28T08:28:44.336Z,45.14
2023-07-28T08:31:29.979Z,44.07
2023-07-28T08:34:15.446Z,43.66
2023-07-28T08:37:00.982Z,46.15
2023-07-28T08:39:46.233Z,44.74
2023-07-28T08:42:31.078Z,44.81
2023-07-28T08:45:16.453Z,44.74
2023-07-28T08:48:02.049Z,45.26
2023-07-28T08:50:47.535Z,44.94
2023-07-28T08:53:32.573Z,45.26
2023-07-28T08:56:18.057Z,44.28
2023-07-28T08:59:03.645Z,43.91
2023-07-28T09:01:49.106Z,44.60
2023-07-28T09:04:34.464Z,43.85
2023-07-28T09:07:20.005Z,43.88
2023-07-28T09:10:05.311Z,44.07
2023-07-28T09:12:50.972Z,43.93
2023-07-28T09:15:36.323Z,43.85
2023-07-28T09:18:21.957Z,44.36
2023-07-28T09:21:07.550Z,43.68
2023-07-28T09:23:52.836Z,43.94
2023-07-28T09:26:38.525Z,44.70
2023-07-28T09:29:23.932Z,44.28
2023-07-28T09:32:09.560Z,44.15
2023-07-28T09:34:54.903Z,45.36
2023-07-28T09:37:40.261Z,44.55
2023-07-28T09:40:25.554Z,45.11
2023-07-28T09:43:12.060Z,44.28
2023-07-28T09:45:57.418Z,44.25
2023-07-28T09:48:42.728Z,44.13
2023-07-28T09:51:28.218Z,44.91
2023-07-28T09:54:13.718Z,44.57
2023-07-28T09:56:58.713Z,45.09
2023-07-28T09:59:44.095Z,44.51
2023-07-28T10:02:29.200Z,43.99
2023-07-28T10:05:14.561Z,43.72
2023-07-28T10:08:02.909Z,44.31
2023-07-28T10:10:48.471Z,44.54
2023-07-28T10:13:33.897Z,44.95
2023-07-28T10:16:19.542Z,44.65
2023-07-28T10:19:05.049Z,44.27
2023-07-28T10:21:50.527Z,43.67
2023-07-28T10:24:35.913Z,44.29
2023-07-28T10:27:21.394Z,43.99
2023-07-28T10:30:06.859Z,44.23
2023-07-28T10:32:52.564Z,43.75
2023-07-28T10:35:38.047Z,44.08
2023-07-28T10:38:26.466Z,44.13
2023-07-28T10:41:11.872Z,44.17
2023-07-28T10:43:56.945Z,44.07
2023-07-28T10:46:42.553Z,43.48
2023-07-28T10:49:28.066Z,43.16
2023-07-28T10:52:12.928Z,43.06
2023-07-28T10:54:58.444Z,42.97
2023-07-28T10:57:43.879Z,43.21
2023-07-28T11:00:29.293Z,43.21
2023-07-28T11:03:15.067Z,43.04
2023-07-28T11:06:00.157Z,43.30
2023-07-28T11:08:45.584Z,43.47
2023-07-28T11:11:30.665Z,42.95
2023-07-28T11:14:16.759Z,43.25
2023-07-28T11:17:02.009Z,43.27
2023-07-28T11:19:47.300Z,43.65
2023-07-28T11:22:32.673Z,43.49
2023-07-28T11:25:18.167Z,43.44
2023-07-28T11:28:03.207Z,43.86
2023-07-28T11:30:48.851Z,43.66
2023-07-28T11:33:34.332Z,44.79
2023-07-28T11:36:22.286Z,45.27
2023-07-28T11:39:07.697Z,45.00
2023-07-28T11:41:53.137Z,44.89
2023-07-28T11:44:38.080Z,45.60
2023-07-28T11:47:23.468Z,45.41
2023-07-28T11:50:08.961Z,45.16
2023-07-28T11:52:54.474Z,45.35
2023-07-28T11:55:40.044Z,44.76
2023-07-28T11:58:25.654Z,43.79
2023-07-28T12:01:11.092Z,43.84
2023-07-28T12:03:56.763Z,43.25
2023-07-28T12:06:55.761Z,42.92
2023-07-28T12:09:42.347Z,42.60
2023-07-28T12:12:27.386Z,42.44
2023-07-28T12:20:49.211Z,42.14
2023-07-28T12:26:22.665Z,41.81
2023-07-28T12:29:11.525Z,42.24
2023-07-28T12:32:02.789Z,42.08
2023-07-28T12:34:51.835Z,42.08
2023-07-28T12:48:52.710Z,41.73
2023-07-28T12:51:38.193Z,41.73
2023-07-28T12:54:23.149Z,41.62
2023-07-28T13:02:44.845Z,41.95
2023-07-28T13:05:30.134Z,41.44
2023-07-28T13:08:15.600Z,41.98
2023-07-28T13:13:48.886Z,41.91
2023-07-28T13:16:34.664Z,42.19
2023-07-28T13:19:20.089Z,42.02
2023-07-28T13:22:05.620Z,41.85
2023-07-28T13:24:51.044Z,41.90
2023-07-28T13:27:36.159Z,41.91
2023-07-28T13:30:21.781Z,41.98
2023-07-28T13:33:07.294Z,41.67
2023-07-28T13:35:52.706Z,41.63
2023-07-28T13:38:38.052Z,41.82
2023-07-28T13:41:23.603Z,41.69
2023-07-28T13:44:15.057Z,41.58
2023-07-28T13:47:00.846Z,41.47
2023-07-28T13:52:34.313Z,41.40
2023-07-28T13:55:40.610Z,41.27
2023-07-28T13:58:25.467Z,40.93
2023-07-28T14:01:11.147Z,40.86
2023-07-28T14:03:56.628Z,40.90
2023-07-28T14:06:41.928Z,41.00
2023-07-28T14:09:27.516Z,40.97
2023-07-28T14:12:12.958Z,40.77
2023-07-28T14:14:58.454Z,40.57
2023-07-28T14:17:44.011Z,40.76
2023-07-28T14:20:29.385Z,40.34
2023-07-28T14:23:14.764Z,39.90
2023-07-28T14:26:00.365Z,39.87
2023-07-28T14:28:45.880Z,39.61
2023-07-28T14:31:35.028Z,39.73
2023-07-28T14:34:20.384Z,39.64
2023-07-28T14:37:05.302Z,39.49
2023-07-28T14:39:50.692Z,39.20
2023-07-28T14:42:36.131Z,39.47
2023-07-28T14:45:21.140Z,40.12
2023-07-28T14:48:06.296Z,40.21
2023-07-28T14:50:51.665Z,40.33
2023-07-28T14:53:37.062Z,40.49
2023-07-28T14:56:22.551Z,40.19
2023-07-28T14:59:08.011Z,40.25
2023-07-28T15:01:52.922Z,39.49
2023-07-28T15:04:38.058Z,39.58
2023-07-28T15:07:23.330Z,40.81
2023-07-28T15:10:09.071Z,41.54
2023-07-28T15:12:54.580Z,39.89
2023-07-28T15:15:39.957Z,39.85
2023-07-28T15:18:25.454Z,39.87
2023-07-28T15:21:10.885Z,40.46
2023-07-28T15:23:56.528Z,41.04
2023-07-28T15:26:41.791Z,41.25
2023-07-28T15:29:27.361Z,40.95
2023-07-28T15:32:12.820Z,40.95
2023-07-28T15:34:58.206Z,39.79
2023-07-28T15:37:43.689Z,39.40
2023-07-28T15:40:28.975Z,38.54
2023-07-28T15:43:14.368Z,37.87
2023-07-28T15:46:00.128Z,38.05
2023-07-28T15:48:45.562Z,37.50
2023-07-28T15:51:31.178Z,37.04
2023-07-28T15:54:16.508Z,37.52
2023-07-28T15:57:02.065Z,36.69
2023-07-28T15:59:47.016Z,36.38
2023-07-28T16:02:32.338Z,36.82
2023-07-28T16:05:17.807Z,36.71
2023-07-28T16:08:03.253Z,36.50
2023-07-28T16:10:48.878Z,38.15
2023-07-28T16:13:34.323Z,38.97
2023-07-28T16:16:19.829Z,38.47
2023-07-28T16:19:05.462Z,39.60
2023-07-28T16:21:50.757Z,39.75
2023-07-28T16:24:36.389Z,39.82
2023-07-28T16:27:21.949Z,38.88
2023-07-28T16:30:07.454Z,38.12
2023-07-28T16:32:52.890Z,37.82
2023-07-28T16:35:38.512Z,37.65
2023-07-28T16:38:23.891Z,37.73
2023-07-28T16:41:09.301Z,37.21
2023-07-28T16:43:54.750Z,37.75
2023-07-28T16:46:40.281Z,37.73
2023-07-28T16:49:25.782Z,38.79
2023-07-28T16:52:11.436Z,38.55
2023-07-28T16:54:56.869Z,38.60
2023-07-28T16:57:42.354Z,38.32
2023-07-28T17:00:27.768Z,38.78
2023-07-28T17:03:13.171Z,38.51
2023-07-28T17:05:58.554Z,38.87
2023-07-28T17:08:44.425Z,39.40
2023-07-28T17:11:30.996Z,39.36
2023-07-28T17:14:17.605Z,39.10
2023-07-28T17:17:02.675Z,39.14
2023-07-28T17:19:48.059Z,37.87
2023-07-28T17:22:33.789Z,38.82
2023-07-28T17:25:19.665Z,39.05
2023-07-28T17:28:05.466Z,39.20
2023-07-28T17:30:50.757Z,39.37
2023-07-28T17:33:36.260Z,39.03
2023-07-28T17:36:21.675Z,38.89
2023-07-28T17:39:07.647Z,39.74
2023-07-28T17:41:52.833Z,40.23
2023-07-28T17:44:38.211Z,39.82
2023-07-28T17:47:23.775Z,39.72
2023-07-28T17:50:09.165Z,39.48
2023-07-28T17:52:54.902Z,39.86
2023-07-28T17:55:40.192Z,39.58
2023-07-28T17:58:25.623Z,39.90
2023-07-28T18:01:10.558Z,39.37
2023-07-28T18:03:55.897Z,40.07
2023-07-28T18:06:41.333Z,39.29
2023-07-28T18:09:26.293Z,39.62
2023-07-28T18:12:11.932Z,39.89
2023-07-28T18:14:57.379Z,40.08
2023-07-28T18:17:42.825Z,39.83
2023-07-28T18:20:28.291Z,40.31
2023-07-28T18:23:13.626Z,40.51
2023-07-28T18:25:59.103Z,40.52
2023-07-28T18:28:44.284Z,40.56
2023-07-28T18:31:29.638Z,40.67
2023-07-28T18:34:14.590Z,40.13
2023-07-28T18:37:00.057Z,40.39
2023-07-28T18:39:45.505Z,39.93
2023-07-28T18:42:30.929Z,40.52
2023-07-28T18:45:16.205Z,40.31
2023-07-28T18:48:01.768Z,40.57
2023-07-28T18:50:47.049Z,40.72
2023-07-28T18:53:32.524Z,40.72
2023-07-28T18:56:17.794Z,40.43
2023-07-28T18:59:03.236Z,40.77
2023-07-28T19:01:48.711Z,40.46
2023-07-28T19:04:34.158Z,40.74
2023-07-28T19:07:19.884Z,40.28
2023-07-28T19:10:05.502Z,40.73
2023-07-28T19:12:51.185Z,40.49
2023-07-28T19:15:46.575Z,40.53
2023-07-28T19:18:32.762Z,40.38
2023-07-28T19:21:18.181Z,40.14
2023-07-28T19:24:03.713Z,40.09
2023-07-28T19:26:48.788Z,40.26
2023-07-28T19:29:34.423Z,40.27
2023-07-28T19:32:19.731Z,40.23
2023-07-28T19:35:05.073Z,40.20
2023-07-28T19:37:50.730Z,40.38
2023-07-28T19:40:36.187Z,40.46
2023-07-28T19:43:21.533Z,40.93
2023-07-28T19:46:07.203Z,41.08
2023-07-28T19:48:52.665Z,40.32
2023-07-28T19:51:38.152Z,40.53
2023-07-28T19:54:23.689Z,40.38
2023-07-28T19:57:09.166Z,40.75
2023-07-28T19:59:53.943Z,40.49
2023-07-28T20:02:39.409Z,40.69
2023-07-28T20:05:24.743Z,40.41
2023-07-28T20:08:10.259Z,40.83
2023-07-28T20:10:55.673Z,40.87
2023-07-28T20:13:41.178Z,41.01
2023-07-28T20:16:26.560Z,41.49
2023-07-28T20:19:12.107Z,41.50
2023-07-28T20:21:57.095Z,41.33
2023-07-28T20:24:42.239Z,41.66
2023-07-28T20:27:27.489Z,41.63
2023-07-28T20:30:12.487Z,41.50
2023-07-28T20:32:58.061Z,41.74
2023-07-28T20:35:43.284Z,41.48
2023-07-28T20:38:28.245Z,41.69
2023-07-28T20:41:13.140Z,42.01
2023-07-28T20:43:58.029Z,42.22
2023-07-28T20:46:43.072Z,42.01
2023-07-28T20:49:28.566Z,42.16
2023-07-28T20:52:14.185Z,43.01
2023-07-28T20:54:59.729Z,43.19
2023-07-28T20:57:45.312Z,43.15
2023-07-28T21:00:32.501Z,42.66
2023-07-28T21:03:18.482Z,42.58
2023-07-28T21:06:03.894Z,42.26
2023-07-28T21:08:48.862Z,42.36
2023-07-28T21:11:34.366Z,42.50
2023-07-28T21:14:19.830Z,42.46
2023-07-28T21:17:05.288Z,42.41
2023-07-28T21:19:50.776Z,42.36
2023-07-28T21:22:36.103Z,42.74
2023-07-28T21:25:21.584Z,42.82
2023-07-28T21:28:06.997Z,42.89
2023-07-28T21:30:52.429Z,42.78
2023-07-28T21:33:37.886Z,42.66
2023-07-28T21:36:22.894Z,42.88
2023-07-28T21:39:08.398Z,43.14
2023-07-28T21:41:54.223Z,43.11
2023-07-28T21:44:39.673Z,42.99
2023-07-28T21:47:24.715Z,43.23
2023-07-28T21:50:10.210Z,43.47
2023-07-28T21:52:55.893Z,43.56
2023-07-28T21:55:41.409Z,43.37
2023-07-28T21:58:26.823Z,43.42
2023-07-28T22:01:11.802Z,43.45
2023-07-28T22:03:57.428Z,43.89
2023-07-28T22:06:42.981Z,44.22
2023-07-28T22:09:28.232Z,43.99
2023-07-28T22:12:13.155Z,44.57
2023-07-28T22:14:58.041Z,44.54
2023-07-28T22:17:43.565Z,44.36
2023-07-28T22:20:29.978Z,44.77
2023-07-28T22:23:15.917Z,44.90
2023-07-28T22:26:01.261Z,45.12
2023-07-28T22:28:46.621Z,45.58
2023-07-28T22:31:31.673Z,45.55
2023-07-28T22:34:17.254Z,45.37
2023-07-28T22:37:03.179Z,45.74
2023-07-28T22:39:48.718Z,45.54
2023-07-28T22:42:34.291Z,45.82
2023-07-28T22:45:19.185Z,45.79
2023-07-28T22:48:04.650Z,45.86
2023-07-28T22:50:50.064Z,45.52
2023-07-28T22:53:36.772Z,45.57
2023-07-28T22:56:22.195Z,45.78
2023-07-28T22:59:07.340Z,45.84
2023-07-28T23:01:52.961Z,45.60
2023-07-28T23:04:38.524Z,46.07
2023-07-28T23:07:24.160Z,45.92
2023-07-28T23:10:09.582Z,46.15
2023-07-28T23:12:54.937Z,46.34
2023-07-28T23:15:40.299Z,46.80
2023-07-28T23:18:25.857Z,46.46
2023-07-28T23:21:11.469Z,47.22
2023-07-28T23:23:56.529Z,46.29
2023-07-28T23:26:42.037Z,46.68
2023-07-28T23:29:27.550Z,46.42
2023-07-28T23:32:13.056Z,46.49
2023-07-28T23:34:58.674Z,46.36
2023-07-28T23:37:43.920Z,46.39
2023-07-28T23:40:29.151Z,46.26
2023-07-28T23:43:14.517Z,46.29
2023-07-28T23:46:00.095Z,46.76
2023-07-28T23:48:45.461Z,48.14
2023-07-28T23:51:30.470Z,48.72
2023-07-28T23:54:19.126Z,49.52
2023-07-28T23:57:04.341Z,50.23
2023-07-28T23:59:49.746Z,51.26
